sensor_id;sensor_type;location;lat;lon;timestamp;pressure;altitude;pressure_sealevel;temperature;humidity
80644;BME280;70010;60.224;24.712;2023-07-28T00:01:42;100221.54;;;13.11;55.78
80644;BME280;70010;60.224;24.712;2023-07-28T00:04:07;100217.29;;;15.65;49.87
80644;BME280;70010;60.224;24.712;2023-07-28T00:06:32;100214.12;;;16.36;48.40
80644;BME280;70010;60.224;24.712;2023-07-28T00:08:58;100214.08;;;16.63;47.44
80644;BME280;70010;60.224;24.712;2023-07-28T00:11:23;100214.36;;;16.21;47.61
80644;BME280;70010;60.224;24.712;2023-07-28T00:13:49;100223.19;;;11.32;58.93
80644;BME280;70010;60.224;24.712;2023-07-28T00:16:14;100220.78;;;11.25;61.18
80644;BME280;70010;60.224;24.712;2023-07-28T00:18:40;100220.58;;;12.78;57.97
80644;BME280;70010;60.224;24.712;2023-07-28T00:21:05;100220.52;;;13.20;55.90
80644;BME280;70010;60.224;24.712;2023-07-28T00:23:30;100214.91;;;11.91;59.05
80644;BME280;70010;60.224;24.712;2023-07-28T00:25:55;100211.34;;;12.23;59.18
80644;BME280;70010;60.224;24.712;2023-07-28T00:28:21;100211.98;;;11.12;62.21
80644;BME280;70010;60.224;24.712;2023-07-28T00:30:49;100209.93;;;13.20;56.28
80644;BME280;70010;60.224;24.712;2023-07-28T00:33:11;100209.50;;;13.95;52.78
80644;BME280;70010;60.224;24.712;2023-07-28T00:35:37;100200.07;;;15.13;50.86
80644;BME280;70010;60.224;24.712;2023-07-28T00:38:02;100208.29;;;12.76;54.89
80644;BME280;70010;60.224;24.712;2023-07-28T00:40:27;100200.33;;;16.14;49.03
80644;BME280;70010;60.224;24.712;2023-07-28T00:42:52;100198.27;;;16.78;47.26
80644;BME280;70010;60.224;24.712;2023-07-28T00:45:17;100193.69;;;16.53;47.16
80644;BME280;70010;60.224;24.712;2023-07-28T00:47:44;100199.14;;;14.47;51.81
80644;BME280;70010;60.224;24.712;2023-07-28T00:50:09;100196.67;;;14.60;51.74
80644;BME280;70010;60.224;24.712;2023-07-28T00:52:33;100200.84;;;12.96;54.69
80644;BME280;70010;60.224;24.712;2023-07-28T00:54:58;100194.94;;;15.40;49.02
80644;BME280;70010;60.224;24.712;2023-07-28T00:57:24;100196.02;;;14.47;51.90
80644;BME280;70010;60.224;24.712;2023-07-28T00:59:49;100198.52;;;13.40;53.69
80644;BME280;70010;60.224;24.712;2023-07-28T01:02:14;100189.13;;;15.48;50.08
80644;BME280;70010;60.224;24.712;2023-07-28T01:04:40;100187.25;;;14.80;51.48
80644;BME280;70010;60.224;24.712;2023-07-28T01:07:09;100184.42;;;15.45;49.70
80644;BME280;70010;60.224;24.712;2023-07-28T01:09:36;100182.42;;;14.99;50.07
80644;BME280;70010;60.224;24.712;2023-07-28T01:11:56;100182.56;;;14.51;51.53
80644;BME280;70010;60.224;24.712;2023-07-28T01:14:21;100179.31;;;15.41;48.89
80644;BME280;70010;60.224;24.712;2023-07-28T01:16:46;100174.82;;;16.19;47.34
80644;BME280;70010;60.224;24.712;2023-07-28T01:19:11;100175.73;;;16.10;47.32
80644;BME280;70010;60.224;24.712;2023-07-28T01:21:37;100175.67;;;15.43;48.26
80644;BME280;70010;60.224;24.712;2023-07-28T01:24:14;100176.21;;;15.88;48.14
80644;BME280;70010;60.224;24.712;2023-07-28T01:26:31;100173.40;;;16.32;46.78
80644;BME280;70010;60.224;24.712;2023-07-28T01:28:52;100171.61;;;16.44;46.49
80644;BME280;70010;60.224;24.712;2023-07-28T01:31:17;100169.14;;;16.75;45.89
80644;BME280;70010;60.224;24.712;2023-07-28T01:33:42;100169.32;;;16.18;47.06
80644;BME280;70010;60.224;24.712;2023-07-28T01:36:08;100169.37;;;16.46;46.79
80644;BME280;70010;60.224;24.712;2023-07-28T01:38:33;100173.20;;;14.23;50.29
80644;BME280;70010;60.224;24.712;2023-07-28T01:40:58;100181.69;;;13.41;52.92
80644;BME280;70010;60.224;24.712;2023-07-28T01:43:23;100175.29;;;14.96;50.14
80644;BME280;70010;60.224;24.712;2023-07-28T01:45:49;100180.48;;;13.85;51.87
80644;BME280;70010;60.224;24.712;2023-07-28T01:48:14;100177.20;;;14.35;50.60
80644;BME280;70010;60.224;24.712;2023-07-28T01:50:39;100176.39;;;14.18;51.52
80644;BME280;70010;60.224;24.712;2023-07-28T01:53:05;100174.09;;;14.39;50.82
80644;BME280;70010;60.224;24.712;2023-07-28T01:55:30;100176.02;;;15.58;48.43
80644;BME280;70010;60.224;24.712;2023-07-28T01:57:56;100180.11;;;14.59;50.29
80644;BME280;70010;60.224;24.712;2023-07-28T02:00:20;100179.99;;;15.37;49.13
80644;BME280;70010;60.224;24.712;2023-07-28T02:02:46;100185.73;;;13.99;51.37
80644;BME280;70010;60.224;24.712;2023-07-28T02:05:11;100184.22;;;14.55;50.06
80644;BME280;70010;60.224;24.712;2023-07-28T02:07:36;100185.15;;;13.07;52.99
80644;BME280;70010;60.224;24.712;2023-07-28T02:10:01;100180.57;;;15.39;48.92
80644;BME280;70010;60.224;24.712;2023-07-28T02:12:26;100185.55;;;12.01;55.61
80644;BME280;70010;60.224;24.712;2023-07-28T02:14:52;100184.18;;;12.21;55.69
80644;BME280;70010;60.224;24.712;2023-07-28T02:17:17;100174.13;;;14.88;50.07
80644;BME280;70010;60.224;24.712;2023-07-28T02:19:42;100177.79;;;13.52;53.58
80644;BME280;70010;60.224;24.712;2023-07-28T02:22:07;100177.06;;;13.73;51.71
80644;BME280;70010;60.224;24.712;2023-07-28T02:24:33;100171.50;;;14.70;50.26
80644;BME280;70010;60.224;24.712;2023-07-28T02:26:58;100178.53;;;13.57;51.95
80644;BME280;70010;60.224;24.712;2023-07-28T02:29:23;100176.19;;;15.60;48.50
80644;BME280;70010;60.224;24.712;2023-07-28T02:31:48;100173.23;;;15.63;47.88
80644;BME280;70010;60.224;24.712;2023-07-28T02:34:14;100171.70;;;15.50;47.55
80644;BME280;70010;60.224;24.712;2023-07-28T02:36:39;100169.94;;;14.55;49.72
80644;BME280;70010;60.224;24.712;2023-07-28T02:39:04;100178.86;;;13.10;54.03
80644;BME280;70010;60.224;24.712;2023-07-28T02:41:29;100177.67;;;13.21;53.56
80644;BME280;70010;60.224;24.712;2023-07-28T02:43:55;100173.89;;;15.49;48.46
80644;BME280;70010;60.224;24.712;2023-07-28T02:46:20;100176.24;;;16.16;47.23
80644;BME280;70010;60.224;24.712;2023-07-28T02:48:45;100178.39;;;15.12;48.70
80644;BME280;70010;60.224;24.712;2023-07-28T02:51:10;100182.72;;;14.65;49.94
80644;BME280;70010;60.224;24.712;2023-07-28T02:53:36;100178.31;;;15.97;47.51
80644;BME280;70010;60.224;24.712;2023-07-28T02:56:01;100179.67;;;12.69;53.85
80644;BME280;70010;60.224;24.712;2023-07-28T02:58:27;100175.29;;;12.41;55.14
80644;BME280;70010;60.224;24.712;2023-07-28T03:00:52;100171.07;;;15.19;49.21
80644;BME280;70010;60.224;24.712;2023-07-28T03:03:18;100175.73;;;13.97;51.63
80644;BME280;70010;60.224;24.712;2023-07-28T03:05:43;100179.03;;;13.67;51.65
80644;BME280;70010;60.224;24.712;2023-07-28T03:08:08;100176.80;;;13.82;52.18
80644;BME280;70010;60.224;24.712;2023-07-28T03:10:33;100173.39;;;13.25;53.26
80644;BME280;70010;60.224;24.712;2023-07-28T03:12:59;100171.65;;;12.72;54.61
80644;BME280;70010;60.224;24.712;2023-07-28T03:15:24;100166.04;;;12.11;55.95
80644;BME280;70010;60.224;24.712;2023-07-28T03:17:50;100166.72;;;13.00;53.97
80644;BME280;70010;60.224;24.712;2023-07-28T03:20:15;100164.99;;;12.67;55.19
80644;BME280;70010;60.224;24.712;2023-07-28T03:22:40;100162.33;;;11.25;58.67
80644;BME280;70010;60.224;24.712;2023-07-28T03:25:05;100159.09;;;13.24;54.42
80644;BME280;70010;60.224;24.712;2023-07-28T03:27:30;100161.61;;;12.55;55.68
80644;BME280;70010;60.224;24.712;2023-07-28T03:29:55;100158.70;;;14.30;52.35
80644;BME280;70010;60.224;24.712;2023-07-28T03:32:21;100162.88;;;13.67;52.40
80644;BME280;70010;60.224;24.712;2023-07-28T03:34:46;100158.54;;;14.64;50.97
80644;BME280;70010;60.224;24.712;2023-07-28T03:37:11;100165.06;;;12.81;54.97
80644;BME280;70010;60.224;24.712;2023-07-28T03:39:36;100161.36;;;12.57;55.22
80644;BME280;70010;60.224;24.712;2023-07-28T03:42:02;100161.08;;;13.15;53.23
80644;BME280;70010;60.224;24.712;2023-07-28T03:44:27;100159.81;;;13.87;52.13
80644;BME280;70010;60.224;24.712;2023-07-28T03:46:52;100160.07;;;13.63;52.11
80644;BME280;70010;60.224;24.712;2023-07-28T03:49:17;100154.96;;;11.40;58.69
80644;BME280;70010;60.224;24.712;2023-07-28T03:51:43;100151.33;;;11.29;59.52
80644;BME280;70010;60.224;24.712;2023-07-28T03:54:08;100149.04;;;13.04;55.96
80644;BME280;70010;60.224;24.712;2023-07-28T03:56:33;100147.02;;;13.64;53.19
80644;BME280;70010;60.224;24.712;2023-07-28T03:58:58;100146.66;;;13.60;52.76
80644;BME280;70010;60.224;24.712;2023-07-28T04:01:24;100136.79;;;15.55;48.41
80644;BME280;70010;60.224;24.712;2023-07-28T04:03:49;100141.01;;;13.46;52.08
80644;BME280;70010;60.224;24.712;2023-07-28T04:06:14;100136.01;;;13.78;52.54
80644;BME280;70010;60.224;24.712;2023-07-28T04:08:39;100128.02;;;15.66;48.57
80644;BME280;70010;60.224;24.712;2023-07-28T04:11:05;100126.49;;;14.00;51.76
80644;BME280;70010;60.224;24.712;2023-07-28T04:13:30;100128.88;;;13.61;51.95
80644;BME280;70010;60.224;24.712;2023-07-28T04:15:56;100129.39;;;12.11;58.18
80644;BME280;70010;60.224;24.712;2023-07-28T04:18:21;100121.17;;;13.99;51.99
80644;BME280;70010;60.224;24.712;2023-07-28T04:20:46;100118.48;;;14.49;50.67
80644;BME280;70010;60.224;24.712;2023-07-28T04:23:11;100121.38;;;12.66;54.96
80644;BME280;70010;60.224;24.712;2023-07-28T04:25:37;100110.59;;;13.76;52.12
80644;BME280;70010;60.224;24.712;2023-07-28T04:28:02;100117.30;;;13.15;53.49
80644;BME280;70010;60.224;24.712;2023-07-28T04:30:27;100111.55;;;15.09;49.59
80644;BME280;70010;60.224;24.712;2023-07-28T04:32:52;100110.40;;;15.99;48.00
80644;BME280;70010;60.224;24.712;2023-07-28T04:35:18;100105.67;;;14.76;49.55
80644;BME280;70010;60.224;24.712;2023-07-28T04:37:43;100103.20;;;14.54;50.40
80644;BME280;70010;60.224;24.712;2023-07-28T04:40:09;100106.14;;;13.55;52.17
80644;BME280;70010;60.224;24.712;2023-07-28T04:42:33;100101.64;;;14.77;50.21
80644;BME280;70010;60.224;24.712;2023-07-28T04:44:59;100101.80;;;14.82;48.83
80644;BME280;70010;60.224;24.712;2023-07-28T04:47:24;100107.17;;;13.83;52.07
80644;BME280;70010;60.224;24.712;2023-07-28T04:49:49;100115.03;;;11.94;56.20
80644;BME280;70010;60.224;24.712;2023-07-28T04:52:14;100114.94;;;13.19;53.33
80644;BME280;70010;60.224;24.712;2023-07-28T04:54:40;100110.80;;;13.88;51.69
80644;BME280;70010;60.224;24.712;2023-07-28T04:57:05;100109.54;;;14.02;51.98
80644;BME280;70010;60.224;24.712;2023-07-28T04:59:30;100105.60;;;15.98;48.01
80644;BME280;70010;60.224;24.712;2023-07-28T05:01:56;100106.06;;;14.44;50.59
80644;BME280;70010;60.224;24.712;2023-07-28T05:04:21;100106.07;;;14.59;49.89
80644;BME280;70010;60.224;24.712;2023-07-28T05:06:46;100111.46;;;13.06;52.85
80644;BME280;70010;60.224;24.712;2023-07-28T05:09:11;100105.38;;;16.15;47.56
80644;BME280;70010;60.224;24.712;2023-07-28T05:11:36;100106.11;;;15.19;48.84
80644;BME280;70010;60.224;24.712;2023-07-28T05:14:02;100110.03;;;13.25;53.60
80644;BME280;70010;60.224;24.712;2023-07-28T05:16:27;100098.16;;;16.45;46.34
80644;BME280;70010;60.224;24.712;2023-07-28T05:18:52;100092.08;;;15.92;46.96
80644;BME280;70010;60.224;24.712;2023-07-28T05:21:17;100089.02;;;16.52;45.80
80644;BME280;70010;60.224;24.712;2023-07-28T05:23:43;100087.05;;;16.41;46.28
80644;BME280;70010;60.224;24.712;2023-07-28T05:26:08;100090.53;;;12.81;55.21
80644;BME280;70010;60.224;24.712;2023-07-28T05:28:34;100083.77;;;14.11;51.92
80644;BME280;70010;60.224;24.712;2023-07-28T05:31:04;100081.48;;;13.73;52.21
80644;BME280;70010;60.224;24.712;2023-07-28T05:33:24;100077.48;;;15.93;48.33
80644;BME280;70010;60.224;24.712;2023-07-28T05:35:58;100078.54;;;17.57;44.27
80644;BME280;70010;60.224;24.712;2023-07-28T05:38:14;100079.75;;;16.48;46.16
80644;BME280;70010;60.224;24.712;2023-07-28T05:40:39;100073.93;;;15.92;47.60
80644;BME280;70010;60.224;24.712;2023-07-28T05:43:05;100075.61;;;16.87;45.26
80644;BME280;70010;60.224;24.712;2023-07-28T05:45:30;100079.06;;;16.54;45.33
80644;BME280;70010;60.224;24.712;2023-07-28T05:47:55;100078.29;;;17.71;44.27
80644;BME280;70010;60.224;24.712;2023-07-28T05:50:20;100076.30;;;17.89;43.87
80644;BME280;70010;60.224;24.712;2023-07-28T05:52:46;100074.85;;;17.62;44.84
80644;BME280;70010;60.224;24.712;2023-07-28T05:55:11;100067.38;;;17.66;44.93
80644;BME280;70010;60.224;24.712;2023-07-28T05:57:36;100066.09;;;14.20;51.79
80644;BME280;70010;60.224;24.712;2023-07-28T06:00:01;100061.41;;;15.92;49.01
80644;BME280;70010;60.224;24.712;2023-07-28T06:02:27;100061.55;;;15.56;49.39
80644;BME280;70010;60.224;24.712;2023-07-28T06:04:53;100058.37;;;15.20;49.18
80644;BME280;70010;60.224;24.712;2023-07-28T06:07:17;100054.15;;;16.64;46.97
80644;BME280;70010;60.224;24.712;2023-07-28T06:09:42;100055.21;;;17.57;45.11
80644;BME280;70010;60.224;24.712;2023-07-28T06:12:08;100052.95;;;14.47;51.56
80644;BME280;70010;60.224;24.712;2023-07-28T06:14:33;100042.87;;;14.13;51.14
80644;BME280;70010;60.224;24.712;2023-07-28T06:16:58;100036.05;;;16.18;47.56
80644;BME280;70010;60.224;24.712;2023-07-28T06:19:24;100039.14;;;14.89;49.92
80644;BME280;70010;60.224;24.712;2023-07-28T06:21:49;100040.73;;;17.37;45.34
80644;BME280;70010;60.224;24.712;2023-07-28T06:24:14;100039.65;;;17.02;45.28
80644;BME280;70010;60.224;24.712;2023-07-28T06:26:39;100038.67;;;17.00;45.27
80644;BME280;70010;60.224;24.712;2023-07-28T06:29:05;100035.97;;;16.70;46.33
80644;BME280;70010;60.224;24.712;2023-07-28T06:31:30;100035.25;;;16.17;46.97
80644;BME280;70010;60.224;24.712;2023-07-28T06:33:56;100040.80;;;15.05;49.45
80644;BME280;70010;60.224;24.712;2023-07-28T06:36:21;100038.19;;;13.43;54.09
80644;BME280;70010;60.224;24.712;2023-07-28T06:38:46;100041.91;;;12.24;58.19
80644;BME280;70010;60.224;24.712;2023-07-28T06:41:11;100036.45;;;14.05;53.71
80644;BME280;70010;60.224;24.712;2023-07-28T06:43:37;100034.26;;;15.88;48.91
80644;BME280;70010;60.224;24.712;2023-07-28T06:46:02;100032.21;;;15.67;48.47
80644;BME280;70010;60.224;24.712;2023-07-28T06:48:28;100032.14;;;14.15;51.59
80644;BME280;70010;60.224;24.712;2023-07-28T06:50:53;100032.94;;;13.54;54.89
80644;BME280;70010;60.224;24.712;2023-07-28T06:53:18;100039.66;;;13.03;56.26
80644;BME280;70010;60.224;24.712;2023-07-28T06:55:44;100033.13;;;16.65;48.24
80644;BME280;70010;60.224;24.712;2023-07-28T06:58:09;100038.09;;;16.48;47.35
80644;BME280;70010;60.224;24.712;2023-07-28T07:00:34;100041.57;;;15.23;50.37
80644;BME280;70010;60.224;24.712;2023-07-28T07:02:59;100042.34;;;14.43;51.76
80644;BME280;70010;60.224;24.712;2023-07-28T07:05:24;100040.51;;;13.61;53.60
80644;BME280;70010;60.224;24.712;2023-07-28T07:07:50;100041.48;;;14.99;49.34
80644;BME280;70010;60.224;24.712;2023-07-28T07:10:15;100043.58;;;16.32;47.02
80644;BME280;70010;60.224;24.712;2023-07-28T07:12:40;100048.69;;;14.44;50.65
80644;BME280;70010;60.224;24.712;2023-07-28T07:15:07;100040.57;;;18.31;43.63
80644;BME280;70010;60.224;24.712;2023-07-28T07:17:31;100039.64;;;17.55;43.94
80644;BME280;70010;60.224;24.712;2023-07-28T07:19:56;100037.15;;;16.10;45.89
80644;BME280;70010;60.224;24.712;2023-07-28T07:22:21;100036.33;;;16.19;46.29
80644;BME280;70010;60.224;24.712;2023-07-28T07:24:46;100041.02;;;16.89;45.01
80644;BME280;70010;60.224;24.712;2023-07-28T07:27:11;100044.10;;;17.81;43.24
80644;BME280;70010;60.224;24.712;2023-07-28T07:29:37;100040.97;;;16.22;45.87
80644;BME280;70010;60.224;24.712;2023-07-28T07:32:02;100038.83;;;17.81;42.90
80644;BME280;70010;60.224;24.712;2023-07-28T07:34:27;100042.65;;;17.08;44.44
80644;BME280;70010;60.224;24.712;2023-07-28T07:36:52;100041.90;;;17.63;42.82
80644;BME280;70010;60.224;24.712;2023-07-28T07:39:18;100049.98;;;14.17;50.97
80644;BME280;70010;60.224;24.712;2023-07-28T07:41:43;100050.54;;;16.43;45.77
80644;BME280;70010;60.224;24.712;2023-07-28T07:44:08;100047.53;;;16.92;45.03
80644;BME280;70010;60.224;24.712;2023-07-28T07:46:33;100050.05;;;14.79;48.51
80644;BME280;70010;60.224;24.712;2023-07-28T07:48:59;100055.06;;;15.71;46.74
80644;BME280;70010;60.224;24.712;2023-07-28T07:51:24;100048.76;;;18.99;40.54
80644;BME280;70010;60.224;24.712;2023-07-28T07:53:49;100049.12;;;18.63;39.86
80644;BME280;70010;60.224;24.712;2023-07-28T07:56:14;100056.12;;;16.74;42.94
80644;BME280;70010;60.224;24.712;2023-07-28T07:58:39;100050.55;;;17.25;42.24
80644;BME280;70010;60.224;24.712;2023-07-28T08:01:05;100045.17;;;16.99;43.68
80644;BME280;70010;60.224;24.712;2023-07-28T08:03:30;100042.89;;;16.65;43.93
80644;BME280;70010;60.224;24.712;2023-07-28T08:05:55;100038.89;;;18.05;41.07
80644;BME280;70010;60.224;24.712;2023-07-28T08:08:21;100042.39;;;17.81;41.65
80644;BME280;70010;60.224;24.712;2023-07-28T08:10:46;100038.06;;;18.60;40.47
80644;BME280;70010;60.224;24.712;2023-07-28T08:13:11;100040.91;;;17.54;41.78
80644;BME280;70010;60.224;24.712;2023-07-28T08:15:37;100041.75;;;15.28;46.49
80644;BME280;70010;60.224;24.712;2023-07-28T08:18:02;100045.93;;;16.97;43.17
80644;BME280;70010;60.224;24.712;2023-07-28T08:20:27;100042.85;;;17.42;42.25
80644;BME280;70010;60.224;24.712;2023-07-28T08:22:52;100044.90;;;17.57;41.52
80644;BME280;70010;60.224;24.712;2023-07-28T08:25:18;100038.20;;;18.26;39.94
80644;BME280;70010;60.224;24.712;2023-07-28T08:27:43;100036.93;;;19.51;38.37
80644;BME280;70010;60.224;24.712;2023-07-28T08:30:09;100037.24;;;20.26;36.69
80644;BME280;70010;60.224;24.712;2023-07-28T08:32:33;100036.77;;;20.52;36.27
80644;BME280;70010;60.224;24.712;2023-07-28T08:34:58;100035.41;;;20.85;35.67
80644;BME280;70010;60.224;24.712;2023-07-28T08:37:24;100036.22;;;17.98;40.13
80644;BME280;70010;60.224;24.712;2023-07-28T08:39:49;100048.70;;;16.77;41.73
80644;BME280;70010;60.224;24.712;2023-07-28T08:42:15;100043.75;;;17.03;40.70
80644;BME280;70010;60.224;24.712;2023-07-28T08:44:40;100042.38;;;16.68;41.97
80644;BME280;70010;60.224;24.712;2023-07-28T08:47:06;100036.98;;;20.45;35.59
80644;BME280;70010;60.224;24.712;2023-07-28T08:49:31;100036.03;;;19.09;37.42
80644;BME280;70010;60.224;24.712;2023-07-28T08:51:58;100043.07;;;15.94;42.38
80644;BME280;70010;60.224;24.712;2023-07-28T08:54:22;100040.14;;;18.00;39.15
80644;BME280;70010;60.224;24.712;2023-07-28T08:56:47;100045.82;;;16.07;42.68
80644;BME280;70010;60.224;24.712;2023-07-28T08:59:12;100040.61;;;16.51;41.81
80644;BME280;70010;60.224;24.712;2023-07-28T09:01:39;100033.41;;;19.25;36.98
80644;BME280;70010;60.224;24.712;2023-07-28T09:04:09;100030.58;;;19.19;36.54
80644;BME280;70010;60.224;24.712;2023-07-28T09:06:28;100026.48;;;20.19;33.98
80644;BME280;70010;60.224;24.712;2023-07-28T09:08:56;100034.22;;;17.58;38.14
80644;BME280;70010;60.224;24.712;2023-07-28T09:11:18;100029.51;;;18.47;37.50
80644;BME280;70010;60.224;24.712;2023-07-28T09:13:43;100018.27;;;19.65;35.16
80644;BME280;70010;60.224;24.712;2023-07-28T09:16:17;100012.31;;;20.30;33.27
80644;BME280;70010;60.224;24.712;2023-07-28T09:18:34;100011.43;;;22.24;31.10
80644;BME280;70010;60.224;24.712;2023-07-28T09:20:59;100002.43;;;21.22;32.30
80644;BME280;70010;60.224;24.712;2023-07-28T09:23:28;100004.75;;;20.67;32.04
80644;BME280;70010;60.224;24.712;2023-07-28T09:25:49;100004.78;;;19.36;33.63
80644;BME280;70010;60.224;24.712;2023-07-28T09:28:15;100003.06;;;19.68;33.38
80644;BME280;70010;60.224;24.712;2023-07-28T09:30:46;99994.92;;;21.67;31.31
80644;BME280;70010;60.224;24.712;2023-07-28T09:33:05;99992.79;;;22.15;30.27
80644;BME280;70010;60.224;24.712;2023-07-28T09:35:30;99983.38;;;23.25;29.08
80644;BME280;70010;60.224;24.712;2023-07-28T09:37:56;99991.65;;;19.71;32.93
80644;BME280;70010;60.224;24.712;2023-07-28T09:40:22;99993.60;;;21.56;30.37
80644;BME280;70010;60.224;24.712;2023-07-28T09:42:47;99988.79;;;21.19;30.42
80644;BME280;70010;60.224;24.712;2023-07-28T09:45:11;99985.77;;;20.17;30.97
80644;BME280;70010;60.224;24.712;2023-07-28T09:47:37;99982.04;;;21.59;29.82
80644;BME280;70010;60.224;24.712;2023-07-28T09:50:03;99976.90;;;18.88;32.78
80644;BME280;70010;60.224;24.712;2023-07-28T09:52:29;99970.71;;;20.68;31.61
80644;BME280;70010;60.224;24.712;2023-07-28T09:54:54;99968.22;;;21.62;30.01
80644;BME280;70010;60.224;24.712;2023-07-28T09:57:20;99970.52;;;18.68;34.03
80644;BME280;70010;60.224;24.712;2023-07-28T09:59:46;99971.59;;;18.81;33.64
80644;BME280;70010;60.224;24.712;2023-07-28T10:02:09;99965.48;;;19.19;33.37
80644;BME280;70010;60.224;24.712;2023-07-28T10:04:35;99956.87;;;20.37;31.81
80644;BME280;70010;60.224;24.712;2023-07-28T10:07:00;99960.99;;;19.45;32.42
80644;BME280;70010;60.224;24.712;2023-07-28T10:09:25;99964.44;;;17.42;36.90
80644;BME280;70010;60.224;24.712;2023-07-28T10:11:50;99963.04;;;19.88;33.24
80644;BME280;70010;60.224;24.712;2023-07-28T10:16:40;99954.10;;;21.27;30.82
80644;BME280;70010;60.224;24.712;2023-07-28T10:19:05;99950.09;;;20.33;31.69
80644;BME280;70010;60.224;24.712;2023-07-28T10:21:31;99950.26;;;20.30;31.92
80644;BME280;70010;60.224;24.712;2023-07-28T10:23:57;99947.78;;;19.41;33.30
80644;BME280;70010;60.224;24.712;2023-07-28T10:28:46;99946.98;;;21.71;29.35
80644;BME280;70010;60.224;24.712;2023-07-28T10:31:11;99939.65;;;22.84;28.10
80644;BME280;70010;60.224;24.712;2023-07-28T10:33:37;99933.49;;;22.95;27.67
80644;BME280;70010;60.224;24.712;2023-07-28T10:38:30;99934.80;;;22.51;27.67
80644;BME280;70010;60.224;24.712;2023-07-28T10:40:52;99930.42;;;22.11;28.05
80644;BME280;70010;60.224;24.712;2023-07-28T10:43:17;99925.85;;;21.71;27.97
80644;BME280;70010;60.224;24.712;2023-07-28T10:45:43;99926.00;;;23.67;26.32
80644;BME280;70010;60.224;24.712;2023-07-28T10:48:08;99913.85;;;22.98;25.57
80644;BME280;70010;60.224;24.712;2023-07-28T10:50:33;99907.78;;;23.58;25.19
80644;BME280;70010;60.224;24.712;2023-07-28T10:52:58;99919.52;;;21.38;27.46
80644;BME280;70010;60.224;24.712;2023-07-28T10:55:25;99913.17;;;18.88;31.23
80644;BME280;70010;60.224;24.712;2023-07-28T10:57:50;99909.37;;;21.10;28.64
80644;BME280;70010;60.224;24.712;2023-07-28T11:00:17;99898.04;;;24.95;24.62
80644;BME280;70010;60.224;24.712;2023-07-28T11:02:42;99895.29;;;23.75;24.87
80644;BME280;70010;60.224;24.712;2023-07-28T11:05:09;99894.30;;;25.29;23.77
80644;BME280;70010;60.224;24.712;2023-07-28T11:07:29;99894.27;;;24.82;24.51
80644;BME280;70010;60.224;24.712;2023-07-28T11:09:55;99888.67;;;23.38;25.76
80644;BME280;70010;60.224;24.712;2023-07-28T11:12:20;99877.69;;;22.51;26.95
80644;BME280;70010;60.224;24.712;2023-07-28T11:14:45;99880.83;;;23.41;25.64
80644;BME280;70010;60.224;24.712;2023-07-28T11:17:10;99877.84;;;22.34;26.59
80644;BME280;70010;60.224;24.712;2023-07-28T11:19:36;99868.69;;;26.72;22.30
80644;BME280;70010;60.224;24.712;2023-07-28T11:22:01;99867.77;;;24.70;23.72
80644;BME280;70010;60.224;24.712;2023-07-28T11:24:26;99872.66;;;23.04;25.65
80644;BME280;70010;60.224;24.712;2023-07-28T11:26:51;99870.63;;;22.14;26.95
80644;BME280;70010;60.224;24.712;2023-07-28T11:29:18;99872.34;;;21.96;27.02
80644;BME280;70010;60.224;24.712;2023-07-28T11:31:41;99871.67;;;23.52;25.55
80644;BME280;70010;60.224;24.712;2023-07-28T11:34:13;99869.88;;;22.65;26.14
80644;BME280;70010;60.224;24.712;2023-07-28T11:36:32;99866.22;;;22.82;28.38
80644;BME280;70010;60.224;24.712;2023-07-28T11:38:59;99869.63;;;23.20;28.56
80644;BME280;70010;60.224;24.712;2023-07-28T11:41:22;99876.31;;;18.93;36.79
80644;BME280;70010;60.224;24.712;2023-07-28T11:43:48;99878.47;;;20.93;33.77
80644;BME280;70010;60.224;24.712;2023-07-28T11:48:38;99872.82;;;23.38;30.67
80644;BME280;70010;60.224;24.712;2023-07-28T11:51:03;99879.08;;;23.55;30.64
80644;BME280;70010;60.224;24.712;2023-07-28T11:53:32;99874.62;;;23.47;31.41
80644;BME280;70010;60.224;24.712;2023-07-28T11:55:54;99882.55;;;20.98;35.19
80644;BME280;70010;60.224;24.712;2023-07-28T11:58:19;99882.79;;;21.47;34.74
80644;BME280;70010;60.224;24.712;2023-07-28T12:00:44;99884.17;;;23.00;32.50
80644;BME280;70010;60.224;24.712;2023-07-28T12:03:11;99886.81;;;20.04;36.69
80644;BME280;70010;60.224;24.712;2023-07-28T12:05:36;99885.59;;;20.90;36.69
80644;BME280;70010;60.224;24.712;2023-07-28T12:08:01;99887.83;;;18.43;39.98
80644;BME280;70010;60.224;24.712;2023-07-28T12:10:25;99884.45;;;19.43;38.67
80644;BME280;70010;60.224;24.712;2023-07-28T12:12:51;99885.63;;;20.17;37.63
80644;BME280;70010;60.224;24.712;2023-07-28T12:15:21;99893.88;;;18.31;40.18
80644;BME280;70010;60.224;24.712;2023-07-28T12:17:41;99893.99;;;18.26;40.04
80644;BME280;70010;60.224;24.712;2023-07-28T12:20:08;99894.83;;;19.09;38.84
80644;BME280;70010;60.224;24.712;2023-07-28T12:22:32;99894.94;;;18.17;40.84
80644;BME280;70010;60.224;24.712;2023-07-28T12:24:57;99894.52;;;19.60;38.56
80644;BME280;70010;60.224;24.712;2023-07-28T12:27:22;99891.08;;;20.81;36.63
80644;BME280;70010;60.224;24.712;2023-07-28T12:29:47;99883.22;;;20.19;37.70
80644;BME280;70010;60.224;24.712;2023-07-28T12:32:12;99887.34;;;19.04;39.86
80644;BME280;70010;60.224;24.712;2023-07-28T12:34:38;99885.54;;;19.23;39.15
80644;BME280;70010;60.224;24.712;2023-07-28T12:37:03;99880.08;;;19.92;37.84
80644;BME280;70010;60.224;24.712;2023-07-28T12:39:28;99874.86;;;20.25;37.65
80644;BME280;70010;60.224;24.712;2023-07-28T12:41:53;99872.94;;;20.08;37.70